Fort Scott, KS (66701)

5:40 PM CST on February 12, 2016 (GMT -0600)
NonFedAWOS | | Change Station
CLOSE
Current Station
Personal Weather Station
Location: Fort Scott, KS
Elevation: 917 ft
Nearby Weather Stations

Elev 917 ft 37.80 °N, 94.77 °W | Updated 24 minutes ago

Clear
Clear
37 °F
Feels Like 29 °F
N
12
Wind Variable Wind from North
Gusts 0.0 mph

Today
High -- | Low -- °F
--% Chance of Precip.
Yesterday
High -- | Low -- °F
Precip. -- in
Pressure 30.42 in
Visibility 10.0 miles
Clouds Clear
Windchill 29 °F
Dew Point 19 °F
Humidity 48%
Rainfall in
Snow Depth Not available.
7:12 AM 5:54 PM
Waxing Crescent, 24% visible
METAR KPTS 122335Z AUTO 36006KT 10SM CLR 06/M03 A3042 RMK AO2 T00551030
Pressure 30.42 in
Visibility 10.0 miles
Clouds Clear
Windchill 29 °F
Dew Point 19 °F
Humidity 48%
Rainfall in
Snow Depth Not available.
7:12 AM 5:54 PM
Waxing Crescent, 24% visible
METAR KPTS 122335Z AUTO 36006KT 10SM CLR 06/M03 A3042 RMK AO2 T00551030

10-Day Weather Forecast

Almanac

Astronomy

Feb. 12, 2016 Rise Set
Actual Time
Civil Twilight
Nautical Twilight
Astronomical Twilight
Moon
Length of Visible Light
Length of Day
Tomorrow will be .
, % of the Moon is Illuminated

Today's Extremes

State Highs State Lows

Community

WunderPhotos

Upload Photos

1,892,437 photos uploaded!

WunderBlog® & News

Nearby

Air Quality

  Air Quality AQ Index Pollutant
Not available.

Snow Depth

Station Depth Elevation

Earthquake Activity

City Distance Mag. Time & Date
Minimum magnitude displayed is 2.5.

Coastal Water Temperatures

Place Temperature

Stations

Nearby Weather Stations

Station Location Temp. Windchill Dew Point Humidity Wind Precip. Elev Updated Type
                   

Watches & Warnings

There are currently no watches in effect.